Bridgeport, NE (69336)

9:25 AM MST on February 10, 2016 (GMT -0700)
Wickard Heating & Plumbing Office | | Change Station
CLOSE
Current Station
Personal Weather Station
Location: Bridgeport, NE
Elevation: 3681 ft
Nearby Weather Stations

Elev 3681 ft 41.67 °N, 103.10 °W | Updated 5 minutes ago

Clear
Clear
49.6 °F
Feels Like 45 °F
N
11.4
Wind Variable Wind from WNW

Today
High -- | Low -- °F
--% Chance of Precip.
Yesterday
High -- | Low -- °F
Precip. -- in
Pressure 30.04 in
Visibility 10.0 miles
Clouds Clear
Windchill 45 °F
Dew Point 26 °F
Humidity 40%
Rainfall 0.00 in
Snow Depth Not available.
6:54 AM 5:18 PM
Waxing Crescent, 6% visible
METAR KAIA 101553Z AUTO 29008KT 10SM CLR 03/M03 A3000 RMK AO2 SLP170 T00281028
Pressure 30.04 in
Visibility 10.0 miles
Clouds Clear
Windchill 45 °F
Dew Point 26 °F
Humidity 40%
Rainfall 0.00 in
Snow Depth Not available.
6:54 AM 5:18 PM
Waxing Crescent, 6% visible
METAR KAIA 101553Z AUTO 29008KT 10SM CLR 03/M03 A3000 RMK AO2 SLP170 T00281028

10-Day Weather Forecast

Almanac

Astronomy

Feb. 10, 2016 Rise Set
Actual Time
Civil Twilight
Nautical Twilight
Astronomical Twilight
Moon
Length of Visible Light
Length of Day
Tomorrow will be .
, % of the Moon is Illuminated

Today's Extremes

State Highs State Lows

Community

WunderPhotos

Upload Photos

1,891,881 photos uploaded!

WunderBlog® & News

Nearby

Air Quality

  Air Quality AQ Index Pollutant
Not available.

Snow Depth

Station Depth Elevation

Earthquake Activity

City Distance Mag. Time & Date
Minimum magnitude displayed is 2.5.

Coastal Water Temperatures

Place Temperature

Stations

Nearby Weather Stations

Station Location Temp. Windchill Dew Point Humidity Wind Precip. Elev Updated Type
                   

Watches & Warnings

There are currently no watches in effect.